Aegean Tiffany — SVAE9 — position and weather

sailwx.info

Track history (hours):
 
Tides and Currents Weather Stations Pressure Air Temp Water Temp Dewpoint Dewpoint Depression Visibility Wind Speed Wind Dir Waves Ship Positions

Aegean Tiffany

Last reported at 2016-Sep-27 19:33 UTC. Time now 2016-Sep-30 11:51 UTC.
Position N 37°56' E 023°17'.

Length 80 m; draft 4.8 m.

Type: Tanker. MMSI: 240870000.

Date/timePositionNaut miles runAvg speedWind from/ knotsBaromVisibWave heightAir tempDewpointWater temp
2016-Sep-27 19:33N 37°56' E 023°17'13 0.5
2016-Sep-26 15:33N 38°02' E 023°31'0 0.0
2016-Sep-26 13:33N 38°02' E 023°31'1 0.3
2016-Sep-26 11:34N 38°02' E 023°32'3 1.1
2016-Sep-26 08:33N 38°02' E 023°36'3 0.5
2016-Sep-26 02:33N 38°02' E 023°32'7 0.2
2016-Sep-24 14:33N 37°57' E 023°37'0 0.0
2016-Sep-24 12:33N 37°57' E 023°37'3 1.6
2016-Sep-24 10:34N 37°58' E 023°33'5 4.5
2016-Sep-24 09:33N 38°02' E 023°32'38 4.2
2016-Sep-24 00:23N 38°05' E 022°44'  
Track history (hours):
 
Tides and Currents Weather Stations Pressure Air Temp Water Temp Dewpoint Dewpoint Depression Visibility Wind Speed Wind Dir Waves Ship Positions

Aegean Tiffany

Last reported at 2016-Sep-27 19:33 UTC. Time now 2016-Sep-30 11:51 UTC.
Position N 37°56' E 023°17'.

Length 80 m; draft 4.8 m.

Type: Tanker. MMSI: 240870000.

Date/timePositionNaut miles runAvg speedWind from/ knotsBaromVisibWave heightAir tempDewpointWater temp
2016-Sep-27 19:33N 37°56' E 023°17'13 0.5
2016-Sep-26 15:33N 38°02' E 023°31'0 0.0
2016-Sep-26 13:33N 38°02' E 023°31'1 0.3
2016-Sep-26 11:34N 38°02' E 023°32'3 1.1
2016-Sep-26 08:33N 38°02' E 023°36'3 0.5
2016-Sep-26 02:33N 38°02' E 023°32'7 0.2
2016-Sep-24 14:33N 37°57' E 023°37'0 0.0
2016-Sep-24 12:33N 37°57' E 023°37'3 1.6
2016-Sep-24 10:34N 37°58' E 023°33'5 4.5
2016-Sep-24 09:33N 38°02' E 023°32'38 4.2
2016-Sep-24 00:23N 38°05' E 022°44'  

Dump ship's entire track history